Aviation Digital Data Service (ADDS)

Output produced by METARs form (1430 UTC 21 August 2019)
found at http://www.aviationweather.gov/metar/data/
 
Forecast for: WBKS (SANDAKAN/KALIMAN, MY)
Text: TAF WBKS 211100Z 2112/2212 10006KT 9999 FEW016
Forecast period: 1200 UTC 21 August 2019 to 1200 UTC 22 August 2019
Forecast type: FROM: standard forecast or significant change
Winds: from the E (100 degrees) at 7 MPH (6 knots; 3.1 m/s)
Visibility: 6 or more miles 10+ km)
Ceiling: at least 12,000 feet AGL
Clouds: few clouds at 1600 feet AGL
Weather: no significant weather forecast for this period
Text: TEMPO 2113/2117 4000 TSRA FEW014 FEW016CB SCT030
Forecast period: 1300 to 1700 UTC 21 August 2019
Forecast type: TEMPORARY: The following changes expected for less than half the time period
Visibility: 2.49 miles (4.01 km)
Ceiling: at least 12,000 feet AGL
Clouds: few clouds at 1400 feet AGL
few clouds at 1600 feet AGL
scattered clouds at 3000 feet AGL
Weather: TSRA  (rain associated with thunderstorm(s))